sensor_id;sensor_type;location;lat;lon;timestamp;P1;durP1;ratioP1;P2;durP2;ratioP2
33862;SDS011;20158;51.436;-2.742;2023-06-10T00:00:08;8.55;;;6.55;;
33862;SDS011;20158;51.436;-2.742;2023-06-10T00:02:41;10.05;;;6.57;;
33862;SDS011;20158;51.436;-2.742;2023-06-10T00:07:49;11.15;;;6.07;;
33862;SDS011;20158;51.436;-2.742;2023-06-10T00:10:15;7.38;;;5.75;;
33862;SDS011;20158;51.436;-2.742;2023-06-10T00:12:41;8.93;;;6.30;;
33862;SDS011;20158;51.436;-2.742;2023-06-10T00:15:09;8.10;;;6.10;;
33862;SDS011;20158;51.436;-2.742;2023-06-10T00:17:35;9.93;;;6.18;;
33862;SDS011;20158;51.436;-2.742;2023-06-10T00:20:06;8.82;;;6.05;;
33862;SDS011;20158;51.436;-2.742;2023-06-10T00:22:40;9.35;;;6.10;;
33862;SDS011;20158;51.436;-2.742;2023-06-10T00:25:11;9.60;;;6.30;;
33862;SDS011;20158;51.436;-2.742;2023-06-10T00:27:37;9.77;;;6.35;;
33862;SDS011;20158;51.436;-2.742;2023-06-10T00:30:04;8.48;;;5.78;;
33862;SDS011;20158;51.436;-2.742;2023-06-10T00:32:32;7.47;;;6.30;;
33862;SDS011;20158;51.436;-2.742;2023-06-10T00:35:02;7.95;;;6.15;;
33862;SDS011;20158;51.436;-2.742;2023-06-10T00:37:31;7.78;;;5.75;;
33862;SDS011;20158;51.436;-2.742;2023-06-10T00:40:00;9.50;;;7.00;;
33862;SDS011;20158;51.436;-2.742;2023-06-10T00:42:27;10.90;;;6.78;;
33862;SDS011;20158;51.436;-2.742;2023-06-10T00:44:54;8.95;;;6.15;;
33862;SDS011;20158;51.436;-2.742;2023-06-10T00:47:21;10.85;;;6.72;;
33862;SDS011;20158;51.436;-2.742;2023-06-10T00:49:47;10.20;;;6.75;;
33862;SDS011;20158;51.436;-2.742;2023-06-10T00:52:16;8.13;;;5.93;;
33862;SDS011;20158;51.436;-2.742;2023-06-10T00:54:46;8.30;;;6.22;;
33862;SDS011;20158;51.436;-2.742;2023-06-10T00:57:14;10.45;;;6.40;;
33862;SDS011;20158;51.436;-2.742;2023-06-10T00:59:46;8.85;;;6.32;;
33862;SDS011;20158;51.436;-2.742;2023-06-10T01:02:13;9.80;;;6.82;;
33862;SDS011;20158;51.436;-2.742;2023-06-10T01:04:40;8.70;;;5.95;;
33862;SDS011;20158;51.436;-2.742;2023-06-10T01:07:11;13.65;;;7.10;;
33862;SDS011;20158;51.436;-2.742;2023-06-10T01:12:52;10.38;;;5.93;;
33862;SDS011;20158;51.436;-2.742;2023-06-10T01:15:32;8.02;;;6.68;;
33862;SDS011;20158;51.436;-2.742;2023-06-10T01:20:30;6.28;;;5.65;;
33862;SDS011;20158;51.436;-2.742;2023-06-10T01:22:58;9.40;;;6.45;;
33862;SDS011;20158;51.436;-2.742;2023-06-10T01:25:26;8.38;;;6.10;;
33862;SDS011;20158;51.436;-2.742;2023-06-10T01:28:16;9.30;;;6.28;;
33862;SDS011;20158;51.436;-2.742;2023-06-10T01:33:33;9.43;;;7.75;;
33862;SDS011;20158;51.436;-2.742;2023-06-10T01:36:07;9.80;;;6.15;;
33862;SDS011;20158;51.436;-2.742;2023-06-10T01:38:42;14.27;;;8.30;;
33862;SDS011;20158;51.436;-2.742;2023-06-10T01:41:10;7.53;;;6.68;;
33862;SDS011;20158;51.436;-2.742;2023-06-10T01:43:44;9.32;;;6.65;;
33862;SDS011;20158;51.436;-2.742;2023-06-10T01:46:16;9.32;;;5.80;;
33862;SDS011;20158;51.436;-2.742;2023-06-10T01:48:46;10.35;;;6.53;;
33862;SDS011;20158;51.436;-2.742;2023-06-10T01:51:12;10.07;;;6.75;;
33862;SDS011;20158;51.436;-2.742;2023-06-10T01:53:44;8.90;;;6.63;;
33862;SDS011;20158;51.436;-2.742;2023-06-10T01:56:18;10.75;;;6.00;;
33862;SDS011;20158;51.436;-2.742;2023-06-10T01:58:54;9.20;;;6.22;;
33862;SDS011;20158;51.436;-2.742;2023-06-10T02:01:25;8.98;;;6.63;;
33862;SDS011;20158;51.436;-2.742;2023-06-10T02:03:51;9.00;;;6.57;;
33862;SDS011;20158;51.436;-2.742;2023-06-10T02:06:18;8.77;;;6.45;;
33862;SDS011;20158;51.436;-2.742;2023-06-10T02:08:44;9.68;;;6.43;;
33862;SDS011;20158;51.436;-2.742;2023-06-10T02:11:30;10.77;;;6.60;;
33862;SDS011;20158;51.436;-2.742;2023-06-10T02:14:00;8.80;;;6.07;;
33862;SDS011;20158;51.436;-2.742;2023-06-10T02:16:26;7.93;;;6.43;;
33862;SDS011;20158;51.436;-2.742;2023-06-10T02:18:57;8.77;;;6.60;;
33862;SDS011;20158;51.436;-2.742;2023-06-10T02:21:24;8.23;;;6.28;;
33862;SDS011;20158;51.436;-2.742;2023-06-10T02:23:56;9.45;;;6.32;;
33862;SDS011;20158;51.436;-2.742;2023-06-10T02:26:23;9.40;;;6.75;;
33862;SDS011;20158;51.436;-2.742;2023-06-10T02:28:54;11.23;;;7.20;;
33862;SDS011;20158;51.436;-2.742;2023-06-10T02:31:23;8.85;;;6.55;;
33862;SDS011;20158;51.436;-2.742;2023-06-10T02:33:54;7.75;;;5.97;;
33862;SDS011;20158;51.436;-2.742;2023-06-10T02:36:31;10.18;;;6.93;;
33862;SDS011;20158;51.436;-2.742;2023-06-10T02:39:01;8.43;;;6.70;;
33862;SDS011;20158;51.436;-2.742;2023-06-10T02:41:29;10.80;;;6.63;;
33862;SDS011;20158;51.436;-2.742;2023-06-10T02:43:55;11.15;;;7.15;;
33862;SDS011;20158;51.436;-2.742;2023-06-10T02:46:23;11.23;;;5.95;;
33862;SDS011;20158;51.436;-2.742;2023-06-10T02:48:58;10.25;;;7.18;;
33862;SDS011;20158;51.436;-2.742;2023-06-10T02:51:25;9.93;;;6.85;;
33862;SDS011;20158;51.436;-2.742;2023-06-10T02:53:56;7.35;;;5.88;;
33862;SDS011;20158;51.436;-2.742;2023-06-10T02:56:29;8.65;;;6.32;;
33862;SDS011;20158;51.436;-2.742;2023-06-10T02:58:59;9.23;;;6.45;;
33862;SDS011;20158;51.436;-2.742;2023-06-10T03:01:26;9.05;;;6.90;;
33862;SDS011;20158;51.436;-2.742;2023-06-10T03:03:59;8.90;;;7.00;;
33862;SDS011;20158;51.436;-2.742;2023-06-10T03:06:28;7.82;;;6.55;;
33862;SDS011;20158;51.436;-2.742;2023-06-10T03:09:07;9.57;;;6.80;;
33862;SDS011;20158;51.436;-2.742;2023-06-10T03:11:36;11.20;;;6.35;;
33862;SDS011;20158;51.436;-2.742;2023-06-10T03:14:06;10.93;;;8.50;;
33862;SDS011;20158;51.436;-2.742;2023-06-10T03:16:38;12.45;;;8.13;;
33862;SDS011;20158;51.436;-2.742;2023-06-10T03:19:09;10.77;;;7.13;;
33862;SDS011;20158;51.436;-2.742;2023-06-10T03:21:43;11.43;;;7.55;;
33862;SDS011;20158;51.436;-2.742;2023-06-10T03:24:13;9.98;;;7.47;;
33862;SDS011;20158;51.436;-2.742;2023-06-10T03:26:39;13.82;;;8.13;;
33862;SDS011;20158;51.436;-2.742;2023-06-10T03:29:13;10.88;;;7.85;;
33862;SDS011;20158;51.436;-2.742;2023-06-10T03:31:45;10.10;;;7.85;;
33862;SDS011;20158;51.436;-2.742;2023-06-10T03:34:12;10.07;;;7.22;;
33862;SDS011;20158;51.436;-2.742;2023-06-10T03:36:38;10.85;;;8.05;;
33862;SDS011;20158;51.436;-2.742;2023-06-10T03:39:09;12.10;;;8.32;;
33862;SDS011;20158;51.436;-2.742;2023-06-10T03:41:45;9.75;;;8.02;;
33862;SDS011;20158;51.436;-2.742;2023-06-10T03:44:15;14.20;;;10.07;;
33862;SDS011;20158;51.436;-2.742;2023-06-10T03:46:44;8.93;;;7.80;;
33862;SDS011;20158;51.436;-2.742;2023-06-10T03:49:11;10.13;;;8.98;;
33862;SDS011;20158;51.436;-2.742;2023-06-10T03:51:38;9.52;;;8.63;;
33862;SDS011;20158;51.436;-2.742;2023-06-10T03:54:04;15.15;;;10.38;;
33862;SDS011;20158;51.436;-2.742;2023-06-10T03:56:31;11.15;;;7.82;;
33862;SDS011;20158;51.436;-2.742;2023-06-10T03:58:58;10.68;;;8.98;;
33862;SDS011;20158;51.436;-2.742;2023-06-10T04:01:24;9.82;;;8.75;;
33862;SDS011;20158;51.436;-2.742;2023-06-10T04:03:50;12.48;;;9.38;;
33862;SDS011;20158;51.436;-2.742;2023-06-10T04:06:19;11.00;;;8.90;;
33862;SDS011;20158;51.436;-2.742;2023-06-10T04:08:48;9.95;;;8.90;;
33862;SDS011;20158;51.436;-2.742;2023-06-10T04:11:20;11.23;;;8.57;;
33862;SDS011;20158;51.436;-2.742;2023-06-10T04:13:49;18.83;;;10.25;;
33862;SDS011;20158;51.436;-2.742;2023-06-10T04:16:17;10.00;;;8.60;;
33862;SDS011;20158;51.436;-2.742;2023-06-10T04:18:44;12.70;;;9.63;;
33862;SDS011;20158;51.436;-2.742;2023-06-10T04:21:11;11.23;;;8.60;;
33862;SDS011;20158;51.436;-2.742;2023-06-10T04:23:43;12.95;;;9.23;;
33862;SDS011;20158;51.436;-2.742;2023-06-10T04:26:13;11.20;;;10.00;;
33862;SDS011;20158;51.436;-2.742;2023-06-10T04:28:39;16.70;;;10.38;;
33862;SDS011;20158;51.436;-2.742;2023-06-10T04:31:05;12.02;;;9.52;;
33862;SDS011;20158;51.436;-2.742;2023-06-10T04:33:34;17.52;;;11.20;;
33862;SDS011;20158;51.436;-2.742;2023-06-10T04:36:05;13.20;;;9.43;;
33862;SDS011;20158;51.436;-2.742;2023-06-10T04:38:33;14.13;;;9.02;;
33862;SDS011;20158;51.436;-2.742;2023-06-10T04:41:00;15.50;;;9.90;;
33862;SDS011;20158;51.436;-2.742;2023-06-10T04:43:29;12.05;;;9.73;;
33862;SDS011;20158;51.436;-2.742;2023-06-10T04:46:06;13.68;;;9.63;;
33862;SDS011;20158;51.436;-2.742;2023-06-10T04:48:36;14.13;;;10.75;;
33862;SDS011;20158;51.436;-2.742;2023-06-10T04:51:12;15.45;;;9.93;;
33862;SDS011;20158;51.436;-2.742;2023-06-10T04:53:39;13.10;;;10.00;;
33862;SDS011;20158;51.436;-2.742;2023-06-10T04:56:05;17.20;;;10.52;;
33862;SDS011;20158;51.436;-2.742;2023-06-10T04:58:39;14.30;;;10.38;;
33862;SDS011;20158;51.436;-2.742;2023-06-10T05:01:11;13.02;;;10.45;;
33862;SDS011;20158;51.436;-2.742;2023-06-10T05:03:42;13.32;;;11.30;;
33862;SDS011;20158;51.436;-2.742;2023-06-10T05:06:09;14.23;;;10.30;;
33862;SDS011;20158;51.436;-2.742;2023-06-10T05:08:37;13.50;;;10.88;;
33862;SDS011;20158;51.436;-2.742;2023-06-10T05:11:03;11.75;;;10.48;;
33862;SDS011;20158;51.436;-2.742;2023-06-10T05:13:30;14.00;;;9.73;;
33862;SDS011;20158;51.436;-2.742;2023-06-10T05:15:59;17.05;;;10.73;;
33862;SDS011;20158;51.436;-2.742;2023-06-10T05:18:28;14.23;;;10.35;;
33862;SDS011;20158;51.436;-2.742;2023-06-10T05:20:54;15.93;;;11.15;;
33862;SDS011;20158;51.436;-2.742;2023-06-10T05:23:23;16.40;;;10.32;;
33862;SDS011;20158;51.436;-2.742;2023-06-10T05:25:52;15.45;;;10.45;;
33862;SDS011;20158;51.436;-2.742;2023-06-10T05:28:18;15.13;;;11.65;;
33862;SDS011;20158;51.436;-2.742;2023-06-10T05:30:48;15.02;;;10.02;;
33862;SDS011;20158;51.436;-2.742;2023-06-10T05:33:14;16.15;;;10.75;;
33862;SDS011;20158;51.436;-2.742;2023-06-10T05:35:40;15.07;;;11.13;;
33862;SDS011;20158;51.436;-2.742;2023-06-10T05:38:06;13.20;;;10.25;;
33862;SDS011;20158;51.436;-2.742;2023-06-10T05:40:35;12.52;;;10.45;;
33862;SDS011;20158;51.436;-2.742;2023-06-10T05:43:04;12.05;;;10.38;;
33862;SDS011;20158;51.436;-2.742;2023-06-10T05:45:30;15.70;;;11.02;;
33862;SDS011;20158;51.436;-2.742;2023-06-10T05:47:56;14.43;;;10.93;;
33862;SDS011;20158;51.436;-2.742;2023-06-10T05:50:23;12.68;;;9.63;;
33862;SDS011;20158;51.436;-2.742;2023-06-10T05:52:50;15.75;;;11.23;;
33862;SDS011;20158;51.436;-2.742;2023-06-10T05:55:20;13.27;;;10.40;;
33862;SDS011;20158;51.436;-2.742;2023-06-10T05:57:46;19.10;;;11.85;;
33862;SDS011;20158;51.436;-2.742;2023-06-10T06:00:18;14.73;;;10.90;;
33862;SDS011;20158;51.436;-2.742;2023-06-10T06:02:44;13.82;;;11.00;;
33862;SDS011;20158;51.436;-2.742;2023-06-10T06:05:13;15.00;;;10.73;;
33862;SDS011;20158;51.436;-2.742;2023-06-10T06:07:39;14.00;;;10.98;;
33862;SDS011;20158;51.436;-2.742;2023-06-10T06:10:06;12.52;;;10.35;;
33862;SDS011;20158;51.436;-2.742;2023-06-10T06:12:32;15.52;;;10.90;;
33862;SDS011;20158;51.436;-2.742;2023-06-10T06:15:05;13.68;;;10.95;;
33862;SDS011;20158;51.436;-2.742;2023-06-10T06:17:41;13.15;;;10.60;;
33862;SDS011;20158;51.436;-2.742;2023-06-10T06:20:13;12.93;;;11.18;;
33862;SDS011;20158;51.436;-2.742;2023-06-10T06:22:39;15.90;;;11.00;;
33862;SDS011;20158;51.436;-2.742;2023-06-10T06:25:05;16.58;;;11.32;;
33862;SDS011;20158;51.436;-2.742;2023-06-10T06:27:31;13.68;;;10.57;;
33862;SDS011;20158;51.436;-2.742;2023-06-10T06:29:57;15.75;;;11.13;;
33862;SDS011;20158;51.436;-2.742;2023-06-10T06:32:26;16.17;;;10.35;;
33862;SDS011;20158;51.436;-2.742;2023-06-10T06:34:53;14.48;;;10.75;;
33862;SDS011;20158;51.436;-2.742;2023-06-10T06:37:25;15.43;;;11.33;;
33862;SDS011;20158;51.436;-2.742;2023-06-10T06:39:59;13.93;;;10.48;;
33862;SDS011;20158;51.436;-2.742;2023-06-10T06:42:25;15.25;;;10.98;;
33862;SDS011;20158;51.436;-2.742;2023-06-10T06:45:00;16.73;;;11.00;;
33862;SDS011;20158;51.436;-2.742;2023-06-10T06:47:26;14.30;;;11.25;;
33862;SDS011;20158;51.436;-2.742;2023-06-10T06:49:52;15.38;;;10.75;;
33862;SDS011;20158;51.436;-2.742;2023-06-10T06:52:18;16.75;;;11.32;;
33862;SDS011;20158;51.436;-2.742;2023-06-10T06:54:47;15.98;;;11.43;;
33862;SDS011;20158;51.436;-2.742;2023-06-10T06:57:19;15.13;;;10.82;;
33862;SDS011;20158;51.436;-2.742;2023-06-10T06:59:47;18.73;;;11.43;;
33862;SDS011;20158;51.436;-2.742;2023-06-10T07:02:13;16.75;;;11.23;;
33862;SDS011;20158;51.436;-2.742;2023-06-10T07:04:39;16.55;;;10.90;;
33862;SDS011;20158;51.436;-2.742;2023-06-10T07:07:07;14.20;;;10.30;;
33862;SDS011;20158;51.436;-2.742;2023-06-10T07:09:39;15.38;;;9.93;;
33862;SDS011;20158;51.436;-2.742;2023-06-10T07:12:06;15.32;;;9.77;;
33862;SDS011;20158;51.436;-2.742;2023-06-10T07:14:35;16.05;;;10.10;;
33862;SDS011;20158;51.436;-2.742;2023-06-10T07:17:02;12.10;;;9.25;;
33862;SDS011;20158;51.436;-2.742;2023-06-10T07:19:28;15.02;;;9.82;;
33862;SDS011;20158;51.436;-2.742;2023-06-10T07:21:54;16.45;;;10.00;;
33862;SDS011;20158;51.436;-2.742;2023-06-10T07:24:40;13.02;;;9.57;;
33862;SDS011;20158;51.436;-2.742;2023-06-10T07:27:12;18.08;;;10.15;;
33862;SDS011;20158;51.436;-2.742;2023-06-10T07:29:38;15.88;;;9.80;;
33862;SDS011;20158;51.436;-2.742;2023-06-10T07:32:07;13.25;;;9.60;;
33862;SDS011;20158;51.436;-2.742;2023-06-10T07:34:42;13.98;;;8.88;;
33862;SDS011;20158;51.436;-2.742;2023-06-10T07:37:09;20.27;;;10.48;;
33862;SDS011;20158;51.436;-2.742;2023-06-10T07:39:35;10.13;;;8.75;;
33862;SDS011;20158;51.436;-2.742;2023-06-10T07:42:08;13.40;;;9.15;;
33862;SDS011;20158;51.436;-2.742;2023-06-10T07:44:37;9.65;;;8.55;;
33862;SDS011;20158;51.436;-2.742;2023-06-10T07:47:12;12.75;;;9.20;;
33862;SDS011;20158;51.436;-2.742;2023-06-10T07:49:40;9.77;;;8.00;;
33862;SDS011;20158;51.436;-2.742;2023-06-10T07:52:07;12.27;;;9.25;;
33862;SDS011;20158;51.436;-2.742;2023-06-10T07:54:34;12.85;;;9.55;;
33862;SDS011;20158;51.436;-2.742;2023-06-10T07:57:00;17.65;;;9.07;;
33862;SDS011;20158;51.436;-2.742;2023-06-10T07:59:26;11.48;;;8.20;;
33862;SDS011;20158;51.436;-2.742;2023-06-10T08:02:14;11.30;;;8.30;;
33862;SDS011;20158;51.436;-2.742;2023-06-10T08:04:43;10.25;;;8.13;;
33862;SDS011;20158;51.436;-2.742;2023-06-10T08:07:17;10.90;;;7.47;;
33862;SDS011;20158;51.436;-2.742;2023-06-10T08:09:44;9.55;;;7.63;;
33862;SDS011;20158;51.436;-2.742;2023-06-10T08:12:10;11.40;;;7.88;;
33862;SDS011;20158;51.436;-2.742;2023-06-10T08:14:42;10.70;;;7.63;;
33862;SDS011;20158;51.436;-2.742;2023-06-10T08:17:08;10.68;;;7.15;;
33862;SDS011;20158;51.436;-2.742;2023-06-10T08:19:34;12.45;;;7.75;;
33862;SDS011;20158;51.436;-2.742;2023-06-10T08:22:00;12.27;;;7.53;;
33862;SDS011;20158;51.436;-2.742;2023-06-10T08:24:28;10.48;;;7.72;;
33862;SDS011;20158;51.436;-2.742;2023-06-10T08:26:54;11.02;;;7.28;;
33862;SDS011;20158;51.436;-2.742;2023-06-10T08:29:22;9.82;;;7.05;;
33862;SDS011;20158;51.436;-2.742;2023-06-10T08:31:49;10.73;;;7.55;;
33862;SDS011;20158;51.436;-2.742;2023-06-10T08:34:15;10.65;;;6.97;;
33862;SDS011;20158;51.436;-2.742;2023-06-10T08:36:41;9.25;;;7.05;;
33862;SDS011;20158;51.436;-2.742;2023-06-10T08:39:08;8.77;;;6.75;;
33862;SDS011;20158;51.436;-2.742;2023-06-10T08:41:37;12.68;;;7.70;;
33862;SDS011;20158;51.436;-2.742;2023-06-10T08:47:04;8.85;;;6.80;;
33862;SDS011;20158;51.436;-2.742;2023-06-10T08:49:41;10.85;;;7.25;;
33862;SDS011;20158;51.436;-2.742;2023-06-10T08:52:19;12.48;;;7.38;;
33862;SDS011;20158;51.436;-2.742;2023-06-10T08:54:52;10.55;;;6.85;;
33862;SDS011;20158;51.436;-2.742;2023-06-10T08:57:29;12.05;;;6.57;;
33862;SDS011;20158;51.436;-2.742;2023-06-10T08:59:56;10.50;;;6.47;;
33862;SDS011;20158;51.436;-2.742;2023-06-10T09:02:23;8.77;;;6.35;;
33862;SDS011;20158;51.436;-2.742;2023-06-10T09:07:22;9.25;;;6.22;;
33862;SDS011;20158;51.436;-2.742;2023-06-10T09:09:50;10.07;;;6.68;;
33862;SDS011;20158;51.436;-2.742;2023-06-10T09:12:21;11.40;;;6.95;;
33862;SDS011;20158;51.436;-2.742;2023-06-10T09:14:59;11.60;;;6.85;;
33862;SDS011;20158;51.436;-2.742;2023-06-10T09:17:29;11.90;;;6.13;;
33862;SDS011;20158;51.436;-2.742;2023-06-10T09:19:59;5.85;;;5.20;;
33862;SDS011;20158;51.436;-2.742;2023-06-10T09:22:26;11.30;;;7.65;;
33862;SDS011;20158;51.436;-2.742;2023-06-10T09:25:06;10.85;;;7.43;;
33862;SDS011;20158;51.436;-2.742;2023-06-10T09:27:44;12.95;;;8.07;;
33862;SDS011;20158;51.436;-2.742;2023-06-10T09:30:24;14.82;;;8.85;;
33862;SDS011;20158;51.436;-2.742;2023-06-10T09:33:01;12.63;;;8.35;;
33862;SDS011;20158;51.436;-2.742;2023-06-10T09:35:37;11.77;;;9.15;;
33862;SDS011;20158;51.436;-2.742;2023-06-10T09:38:21;12.32;;;8.90;;
33862;SDS011;20158;51.436;-2.742;2023-06-10T09:40:51;15.20;;;8.80;;
33862;SDS011;20158;51.436;-2.742;2023-06-10T09:43:18;15.93;;;9.60;;
33862;SDS011;20158;51.436;-2.742;2023-06-10T09:45:48;12.68;;;8.75;;
33862;SDS011;20158;51.436;-2.742;2023-06-10T09:48:17;13.70;;;8.93;;
33862;SDS011;20158;51.436;-2.742;2023-06-10T09:50:44;14.27;;;8.82;;
33862;SDS011;20158;51.436;-2.742;2023-06-10T09:53:11;15.32;;;8.10;;
33862;SDS011;20158;51.436;-2.742;2023-06-10T09:55:41;17.27;;;9.10;;
33862;SDS011;20158;51.436;-2.742;2023-06-10T09:58:11;14.27;;;8.50;;
33862;SDS011;20158;51.436;-2.742;2023-06-10T10:00:36;10.88;;;8.15;;
33862;SDS011;20158;51.436;-2.742;2023-06-10T10:03:05;18.02;;;9.00;;
33862;SDS011;20158;51.436;-2.742;2023-06-10T10:05:32;13.60;;;8.23;;
33862;SDS011;20158;51.436;-2.742;2023-06-10T10:08:18;9.90;;;8.40;;
33862;SDS011;20158;51.436;-2.742;2023-06-10T10:11:04;12.25;;;8.45;;
33862;SDS011;20158;51.436;-2.742;2023-06-10T10:13:33;12.73;;;9.05;;
33862;SDS011;20158;51.436;-2.742;2023-06-10T10:16:01;15.70;;;8.45;;
33862;SDS011;20158;51.436;-2.742;2023-06-10T10:18:32;7.97;;;7.13;;
33862;SDS011;20158;51.436;-2.742;2023-06-10T10:21:11;11.15;;;8.25;;
33862;SDS011;20158;51.436;-2.742;2023-06-10T10:23:40;15.52;;;8.32;;
33862;SDS011;20158;51.436;-2.742;2023-06-10T10:26:17;12.80;;;7.82;;
33862;SDS011;20158;51.436;-2.742;2023-06-10T10:28:45;17.40;;;8.43;;
33862;SDS011;20158;51.436;-2.742;2023-06-10T10:31:24;13.50;;;8.38;;
33862;SDS011;20158;51.436;-2.742;2023-06-10T10:33:56;14.90;;;8.43;;
33862;SDS011;20158;51.436;-2.742;2023-06-10T10:36:27;12.43;;;8.77;;
33862;SDS011;20158;51.436;-2.742;2023-06-10T10:39:08;10.00;;;7.78;;
33862;SDS011;20158;51.436;-2.742;2023-06-10T10:41:34;13.52;;;8.13;;
33862;SDS011;20158;51.436;-2.742;2023-06-10T10:44:15;20.63;;;8.43;;
33862;SDS011;20158;51.436;-2.742;2023-06-10T10:46:48;15.15;;;8.05;;
33862;SDS011;20158;51.436;-2.742;2023-06-10T10:49:18;10.82;;;8.27;;
33862;SDS011;20158;51.436;-2.742;2023-06-10T10:51:55;13.27;;;7.95;;
33862;SDS011;20158;51.436;-2.742;2023-06-10T10:54:43;12.38;;;7.53;;
33862;SDS011;20158;51.436;-2.742;2023-06-10T10:57:12;14.00;;;9.00;;
33862;SDS011;20158;51.436;-2.742;2023-06-10T11:02:41;13.77;;;8.38;;
33862;SDS011;20158;51.436;-2.742;2023-06-10T11:05:15;13.25;;;7.68;;
33862;SDS011;20158;51.436;-2.742;2023-06-10T11:07:51;14.43;;;8.30;;
33862;SDS011;20158;51.436;-2.742;2023-06-10T11:10:28;11.43;;;8.52;;
33862;SDS011;20158;51.436;-2.742;2023-06-10T11:12:59;15.57;;;8.00;;
33862;SDS011;20158;51.436;-2.742;2023-06-10T11:15:27;9.55;;;8.13;;
33862;SDS011;20158;51.436;-2.742;2023-06-10T11:28:40;13.05;;;8.52;;
33862;SDS011;20158;51.436;-2.742;2023-06-10T11:31:08;9.70;;;8.50;;
33862;SDS011;20158;51.436;-2.742;2023-06-10T11:33:45;11.60;;;7.88;;
33862;SDS011;20158;51.436;-2.742;2023-06-10T11:36:12;14.35;;;8.60;;
33862;SDS011;20158;51.436;-2.742;2023-06-10T11:38:47;16.35;;;9.50;;
33862;SDS011;20158;51.436;-2.742;2023-06-10T11:41:14;13.65;;;8.95;;
33862;SDS011;20158;51.436;-2.742;2023-06-10T11:43:42;15.07;;;8.13;;
33862;SDS011;20158;51.436;-2.742;2023-06-10T11:46:18;11.90;;;8.70;;
33862;SDS011;20158;51.436;-2.742;2023-06-10T11:48:54;17.27;;;9.10;;
33862;SDS011;20158;51.436;-2.742;2023-06-10T11:51:21;14.65;;;10.05;;
33862;SDS011;20158;51.436;-2.742;2023-06-10T11:53:51;11.30;;;8.88;;
33862;SDS011;20158;51.436;-2.742;2023-06-10T11:56:25;13.65;;;9.98;;
33862;SDS011;20158;51.436;-2.742;2023-06-10T11:59:07;14.05;;;9.82;;
33862;SDS011;20158;51.436;-2.742;2023-06-10T12:01:34;12.00;;;8.95;;
33862;SDS011;20158;51.436;-2.742;2023-06-10T12:04:15;16.35;;;9.82;;
33862;SDS011;20158;51.436;-2.742;2023-06-10T12:06:50;13.73;;;9.23;;
33862;SDS011;20158;51.436;-2.742;2023-06-10T12:09:20;15.23;;;8.88;;
33862;SDS011;20158;51.436;-2.742;2023-06-10T12:12:00;16.70;;;10.18;;
33862;SDS011;20158;51.436;-2.742;2023-06-10T12:20:00;13.52;;;10.23;;
33862;SDS011;20158;51.436;-2.742;2023-06-10T12:22:26;16.13;;;10.65;;
33862;SDS011;20158;51.436;-2.742;2023-06-10T12:25:07;14.02;;;9.60;;
33862;SDS011;20158;51.436;-2.742;2023-06-10T12:27:38;14.82;;;8.77;;
33862;SDS011;20158;51.436;-2.742;2023-06-10T12:30:22;13.10;;;9.80;;
33862;SDS011;20158;51.436;-2.742;2023-06-10T12:32:50;14.38;;;9.65;;
33862;SDS011;20158;51.436;-2.742;2023-06-10T12:35:29;12.63;;;9.48;;
33862;SDS011;20158;51.436;-2.742;2023-06-10T12:40:33;16.75;;;9.35;;
33862;SDS011;20158;51.436;-2.742;2023-06-10T12:43:04;14.30;;;9.63;;
33862;SDS011;20158;51.436;-2.742;2023-06-10T12:45:36;13.63;;;10.00;;
33862;SDS011;20158;51.436;-2.742;2023-06-10T12:48:09;13.48;;;9.13;;
33862;SDS011;20158;51.436;-2.742;2023-06-10T12:50:39;12.75;;;8.82;;
33862;SDS011;20158;51.436;-2.742;2023-06-10T12:53:06;11.80;;;9.30;;
33862;SDS011;20158;51.436;-2.742;2023-06-10T12:55:33;14.27;;;9.77;;
33862;SDS011;20158;51.436;-2.742;2023-06-10T12:58:05;13.90;;;9.50;;
33862;SDS011;20158;51.436;-2.742;2023-06-10T13:00:31;11.77;;;9.13;;
33862;SDS011;20158;51.436;-2.742;2023-06-10T13:03:00;14.82;;;9.30;;
33862;SDS011;20158;51.436;-2.742;2023-06-10T13:05:28;12.40;;;8.70;;
33862;SDS011;20158;51.436;-2.742;2023-06-10T13:07:57;11.73;;;8.75;;
33862;SDS011;20158;51.436;-2.742;2023-06-10T13:10:24;14.88;;;9.80;;
33862;SDS011;20158;51.436;-2.742;2023-06-10T13:12:51;16.27;;;9.60;;
33862;SDS011;20158;51.436;-2.742;2023-06-10T13:15:18;12.95;;;8.80;;
33862;SDS011;20158;51.436;-2.742;2023-06-10T13:17:44;13.50;;;9.50;;
33862;SDS011;20158;51.436;-2.742;2023-06-10T13:20:23;14.23;;;9.32;;
33862;SDS011;20158;51.436;-2.742;2023-06-10T13:22:59;12.98;;;9.40;;
33862;SDS011;20158;51.436;-2.742;2023-06-10T13:25:25;13.55;;;9.40;;
33862;SDS011;20158;51.436;-2.742;2023-06-10T13:27:54;11.85;;;8.65;;
33862;SDS011;20158;51.436;-2.742;2023-06-10T13:30:23;12.52;;;8.50;;
33862;SDS011;20158;51.436;-2.742;2023-06-10T13:32:55;12.95;;;9.00;;
33862;SDS011;20158;51.436;-2.742;2023-06-10T13:35:24;13.00;;;8.45;;
33862;SDS011;20158;51.436;-2.742;2023-06-10T13:37:53;13.68;;;9.23;;
33862;SDS011;20158;51.436;-2.742;2023-06-10T13:40:18;11.60;;;8.95;;
33862;SDS011;20158;51.436;-2.742;2023-06-10T13:42:45;11.80;;;9.15;;
33862;SDS011;20158;51.436;-2.742;2023-06-10T13:45:16;12.55;;;8.65;;
33862;SDS011;20158;51.436;-2.742;2023-06-10T13:47:42;13.23;;;8.98;;
33862;SDS011;20158;51.436;-2.742;2023-06-10T13:50:17;14.90;;;9.23;;
33862;SDS011;20158;51.436;-2.742;2023-06-10T13:52:46;12.13;;;9.27;;
33862;SDS011;20158;51.436;-2.742;2023-06-10T13:55:12;17.80;;;9.55;;
33862;SDS011;20158;51.436;-2.742;2023-06-10T13:57:41;12.05;;;9.02;;
33862;SDS011;20158;51.436;-2.742;2023-06-10T14:00:07;10.68;;;8.70;;
33862;SDS011;20158;51.436;-2.742;2023-06-10T14:02:44;14.27;;;9.10;;
33862;SDS011;20158;51.436;-2.742;2023-06-10T14:05:17;11.70;;;7.78;;
33862;SDS011;20158;51.436;-2.742;2023-06-10T14:07:43;14.45;;;9.10;;
33862;SDS011;20158;51.436;-2.742;2023-06-10T14:10:09;11.73;;;8.57;;
33862;SDS011;20158;51.436;-2.742;2023-06-10T14:12:38;13.70;;;9.13;;
33862;SDS011;20158;51.436;-2.742;2023-06-10T14:15:08;11.20;;;8.70;;
33862;SDS011;20158;51.436;-2.742;2023-06-10T14:17:34;12.52;;;9.52;;
33862;SDS011;20158;51.436;-2.742;2023-06-10T14:20:00;12.07;;;9.70;;
33862;SDS011;20158;51.436;-2.742;2023-06-10T14:22:29;11.07;;;8.95;;
33862;SDS011;20158;51.436;-2.742;2023-06-10T14:24:58;10.15;;;8.85;;
33862;SDS011;20158;51.436;-2.742;2023-06-10T14:27:23;12.05;;;8.95;;
33862;SDS011;20158;51.436;-2.742;2023-06-10T14:29:50;19.58;;;10.52;;
33862;SDS011;20158;51.436;-2.742;2023-06-10T14:32:22;14.70;;;9.35;;
33862;SDS011;20158;51.436;-2.742;2023-06-10T14:34:48;11.90;;;7.97;;
33862;SDS011;20158;51.436;-2.742;2023-06-10T14:37:16;13.82;;;9.05;;
33862;SDS011;20158;51.436;-2.742;2023-06-10T14:39:42;13.55;;;8.38;;
33862;SDS011;20158;51.436;-2.742;2023-06-10T14:42:09;11.63;;;9.40;;
33862;SDS011;20158;51.436;-2.742;2023-06-10T14:44:58;24.35;;;9.88;;
33862;SDS011;20158;51.436;-2.742;2023-06-10T14:47:34;11.02;;;8.63;;
33862;SDS011;20158;51.436;-2.742;2023-06-10T14:50:00;10.07;;;8.00;;
33862;SDS011;20158;51.436;-2.742;2023-06-10T14:52:31;12.65;;;9.23;;
33862;SDS011;20158;51.436;-2.742;2023-06-10T14:55:00;13.05;;;9.05;;
33862;SDS011;20158;51.436;-2.742;2023-06-10T14:57:33;13.20;;;9.73;;
33862;SDS011;20158;51.436;-2.742;2023-06-10T14:59:59;13.75;;;8.20;;
33862;SDS011;20158;51.436;-2.742;2023-06-10T15:02:31;12.63;;;9.90;;
33862;SDS011;20158;51.436;-2.742;2023-06-10T15:05:05;11.15;;;9.65;;
33862;SDS011;20158;51.436;-2.742;2023-06-10T15:07:32;12.57;;;9.57;;
33862;SDS011;20158;51.436;-2.742;2023-06-10T15:10:01;12.30;;;9.50;;
33862;SDS011;20158;51.436;-2.742;2023-06-10T15:12:30;9.57;;;8.43;;
33862;SDS011;20158;51.436;-2.742;2023-06-10T15:14:56;13.65;;;9.55;;